Terminal Aerodrome Forecast
Issued by NWS North Platte, NE

Home | Current Version | Previous Version | Text Only | Print | Product List | Glossary Off
Versions: 1 2 3 4 5 6 7 8 9 10 11 12 13 14 15 16 17 18 19 20 21 22 23 24 25

000
FTUS43 KLBF 261141
TAFVTN
TAF
KVTN 261141Z 2612/2712 15006KT P6SM OVC003
     FM261300 15006KT 4SM BR OVC003
      TEMPO 2613/2616 2SM BR
     FM261600 14005KT P6SM SCT003 BKN100
     FM261800 12005KT P6SM SCT050 BKN100
     FM262100 03005KT P6SM BKN050 OVC100
     FM270600 VRB03KT 5SM BR SCT006 BKN100=

USA.gov is the U.S. government's official web portal to all federal, state and local government web resources and services.